createdAt,value
2022-08-05T00:08:38.271Z,13.27
2022-08-05T00:18:45.571Z,13.47
2022-08-05T00:28:47.149Z,12.40
2022-08-05T00:38:51.758Z,8.70
2022-08-05T00:48:54.694Z,8.97
2022-08-05T00:59:00.235Z,8.40
2022-08-05T01:09:04.166Z,8.50
2022-08-05T01:19:46.358Z,7.30
2022-08-05T01:29:50.322Z,6.50
2022-08-05T01:39:55.102Z,6.13
2022-08-05T01:50:03.416Z,5.40
2022-08-05T02:00:12.594Z,5.17
2022-08-05T02:10:17.493Z,3.80
2022-08-05T02:20:23.270Z,6.57
2022-08-05T02:30:38.919Z,6.97
2022-08-05T02:40:57.991Z,6.60
2022-08-05T02:51:00.639Z,6.00
2022-08-05T03:01:03.757Z,6.20
2022-08-05T03:11:55.744Z,6.03
2022-08-05T03:21:41.436Z,6.73
2022-08-05T03:31:56.745Z,6.53
2022-08-05T03:41:59.258Z,13.30
2022-08-05T03:52:38.610Z,13.50
2022-08-05T04:02:38.764Z,12.80
2022-08-05T04:22:41.569Z,13.40
2022-08-05T04:32:46.775Z,12.53
2022-08-05T04:42:51.607Z,12.00
2022-08-05T04:52:54.346Z,11.40
2022-08-05T05:03:00.211Z,6.40
2022-08-05T05:13:05.807Z,6.27
2022-08-05T05:23:08.215Z,6.10
2022-08-05T05:33:23.391Z,7.03
2022-08-05T05:43:57.084Z,5.60
2022-08-05T05:53:57.960Z,3.73
2022-08-05T06:04:03.783Z,3.77
2022-08-05T06:14:09.201Z,3.87
2022-08-05T06:24:14.662Z,3.83
2022-08-05T06:34:16.214Z,4.13
2022-08-05T06:44:22.121Z,4.37
2022-08-05T06:54:25.820Z,4.28
2022-08-05T07:04:27.567Z,5.38
2022-08-05T07:14:48.359Z,4.38
2022-08-05T07:24:52.540Z,3.90
2022-08-05T07:34:57.733Z,4.05
2022-08-05T07:44:59.586Z,3.50
2022-08-05T07:55:02.279Z,3.20
2022-08-05T08:05:17.641Z,3.50
2022-08-05T08:15:22.791Z,3.75
2022-08-05T08:26:00.560Z,3.17
2022-08-05T08:36:29.409Z,2.85
2022-08-05T08:46:27.376Z,2.95
2022-08-05T08:56:30.182Z,2.97
2022-08-05T09:06:31.809Z,2.67
2022-08-05T09:16:33.654Z,2.65
2022-08-05T09:26:36.772Z,2.83
2022-08-05T09:36:55.697Z,2.47
2022-08-05T09:47:15.444Z,2.83
2022-08-05T09:57:39.438Z,2.47
2022-08-05T10:08:35.379Z,2.42
2022-08-05T10:18:17.462Z,2.80
2022-08-05T10:28:29.608Z,2.42
2022-08-05T10:38:35.292Z,3.03
2022-08-05T10:48:52.612Z,2.53
2022-08-05T10:59:11.381Z,2.25
2022-08-05T11:09:32.310Z,2.50
2022-08-05T11:20:17.072Z,3.30
2022-08-05T11:30:10.509Z,7.13
2022-08-05T11:40:12.163Z,2.55
2022-08-05T11:50:21.039Z,2.03
2022-08-05T12:00:27.607Z,1.70
2022-08-05T12:10:43.374Z,1.60
2022-08-05T12:20:47.898Z,1.70
2022-08-05T12:30:50.934Z,1.60
2022-08-05T12:40:53.762Z,1.92
2022-08-05T12:52:10.526Z,1.70
2022-08-05T13:02:02.674Z,1.55
2022-08-05T13:12:19.769Z,1.80
2022-08-05T13:22:29.138Z,1.83
2022-08-05T13:32:34.081Z,1.60
2022-08-05T13:42:39.429Z,1.83
2022-08-05T13:52:42.834Z,1.38
2022-08-05T14:02:45.612Z,1.90
2022-08-05T14:12:49.123Z,2.05
2022-08-05T14:22:57.578Z,1.67
2022-08-05T14:32:59.430Z,1.60
2022-08-05T14:43:00.896Z,1.88
2022-08-05T14:53:02.658Z,2.05
2022-08-05T15:03:07.422Z,2.05
2022-08-05T15:13:11.350Z,2.10
2022-08-05T15:23:13.421Z,2.30
2022-08-05T15:34:04.175Z,2.30
2022-08-05T15:43:45.713Z,5.70
2022-08-05T15:53:51.793Z,4.15
2022-08-05T16:03:53.394Z,5.00
2022-08-05T16:13:54.980Z,2.00
2022-08-05T16:24:01.644Z,2.08
2022-08-05T16:34:04.897Z,2.45
2022-08-05T16:44:13.501Z,1.88
2022-08-05T16:54:17.492Z,2.10
2022-08-05T17:04:22.137Z,2.65
2022-08-05T17:14:36.785Z,2.60
2022-08-05T17:24:46.292Z,3.17
2022-08-05T17:34:58.807Z,2.30
2022-08-05T17:45:17.884Z,3.00
2022-08-05T17:55:27.340Z,2.22
2022-08-05T18:05:36.375Z,2.25
2022-08-05T18:15:38.696Z,2.70
2022-08-05T18:25:41.475Z,1.98
2022-08-05T18:36:01.422Z,10.45
2022-08-05T18:46:07.069Z,8.68
2022-08-05T18:56:12.554Z,9.65
2022-08-05T19:06:21.695Z,11.68
2022-08-05T19:16:28.552Z,1.90
2022-08-05T19:26:31.768Z,1.70
2022-08-05T19:36:33.239Z,2.28
2022-08-05T19:46:37.747Z,2.30
2022-08-05T19:56:41.038Z,2.55
2022-08-05T20:06:46.424Z,2.25
2022-08-05T20:16:48.307Z,2.47
2022-08-05T20:26:49.951Z,6.70
2022-08-05T20:36:51.502Z,5.90
2022-08-05T20:46:53.013Z,7.73
2022-08-05T20:56:54.535Z,2.70
2022-08-05T21:06:56.091Z,2.33
2022-08-05T21:16:57.588Z,2.30
2022-08-05T21:26:59.158Z,2.57
2022-08-05T21:37:00.851Z,2.57
2022-08-05T21:47:04.037Z,2.40
2022-08-05T21:57:34.034Z,2.77
2022-08-05T22:07:40.362Z,3.60
2022-08-05T22:17:59.802Z,3.63
2022-08-05T22:28:09.415Z,3.93
2022-08-05T22:38:13.548Z,4.20
2022-08-05T22:48:16.846Z,4.30
2022-08-05T22:58:28.233Z,6.77
2022-08-05T23:08:30.373Z,7.80
2022-08-05T23:18:32.350Z,8.13
2022-08-05T23:28:33.932Z,9.73
2022-08-05T23:38:35.426Z,9.33
2022-08-05T23:48:36.965Z,9.23
2022-08-05T23:58:38.880Z,9.83
